Time;durP1;ratioP1;P1;durP2;ratioP2;P2;SDS_P1;SDS_P2;PMS_P1;PMS_P2;Temp;Humidity;BMP_temperature;BMP_pressure;BME280_temperature;BME280_humidity;BME280_pressure;Samples;Min_cycle;Max_cycle;Signal;HPM_P1;HPM_P2
2022/09/17 00:00:43;;;;;;;0.95;0.55;;;20.50;89.80;;;;;;6339122;22;20076;-80
2022/09/17 00:03:09;;;;;;;0.90;0.50;;;20.50;89.10;;;;;;6339818;22;20003;-80
2022/09/17 00:05:38;;;;;;;0.40;0.22;;;20.50;89.60;;;;;;6338218;22;20079;-80
2022/09/17 00:08:06;;;;;;;0.70;0.40;;;20.50;89.00;;;;;;6337620;22;20090;-77
2022/09/17 00:10:36;;;;;;;0.93;0.40;;;20.50;89.00;;;;;;6338197;22;20009;-78
2022/09/17 00:13:02;;;;;;;1.08;0.30;;;20.40;88.80;;;;;;6337374;22;19999;-78
2022/09/17 00:15:28;;;;;;;0.30;0.20;;;20.20;89.20;;;;;;6335106;22;19999;-77
2022/09/17 00:17:56;;;;;;;0.65;0.40;;;19.90;90.00;;;;;;6306442;22;20131;-78
2022/09/17 00:20:26;;;;;;;1.50;0.20;;;19.30;90.60;;;;;;6336593;22;20006;-76
2022/09/17 00:22:52;;;;;;;0.40;0.20;;;19.20;91.50;;;;;;6335467;22;20021;-75
2022/09/17 00:25:19;;;;;;;0.40;0.15;;;19.30;91.70;;;;;;6337543;22;20003;-75
2022/09/17 00:27:45;;;;;;;0.17;0.13;;;19.40;91.20;;;;;;6336969;22;20002;-76
2022/09/17 00:30:11;;;;;;;0.47;0.20;;;19.60;91.10;;;;;;6337657;22;19999;-75
2022/09/17 00:32:37;;;;;;;3.50;0.75;;;19.70;91.10;;;;;;6337888;22;20439;-75
2022/09/17 00:35:03;;;;;;;2.67;0.80;;;19.90;91.10;;;;;;6310636;22;19999;-75
2022/09/17 00:37:29;;;;;;;1.85;0.90;;;20.00;91.20;;;;;;6338237;22;20003;-75
2022/09/17 00:39:54;;;;;;;2.55;0.80;;;20.10;91.10;;;;;;6312438;22;20013;-74
2022/09/17 00:42:21;;;;;;;1.40;0.60;;;20.10;91.10;;;;;;6311923;22;20409;-75
2022/09/17 00:44:51;;;;;;;2.92;0.47;;;20.20;91.10;;;;;;6312018;22;20002;-75
2022/09/17 00:47:30;;;;;;;3.00;0.50;;;20.20;91.10;;;;;;6338447;22;20003;-75
2022/09/17 00:50:17;;;;;;;0.43;0.25;;;20.10;91.20;;;;;;6339763;22;20002;-75
2022/09/17 00:52:54;;;;;;;0.88;0.20;;;20.10;91.20;;;;;;6339157;22;20030;-75
2022/09/17 00:55:24;;;;;;;0.73;0.50;;;20.10;91.10;;;;;;6339773;22;20033;-74
2022/09/17 00:57:52;;;;;;;0.98;0.20;;;19.90;90.60;;;;;;6337888;22;19999;-74
2022/09/17 01:00:19;;;;;;;0.73;0.20;;;20.00;90.80;;;;;;6339814;22;20002;-74
2022/09/17 01:02:44;;;;;;;2.28;0.40;;;20.00;90.60;;;;;;6312010;22;20018;-75
2022/09/17 01:05:12;;;;;;;0.40;0.13;;;20.10;90.80;;;;;;6339484;22;20344;-74
2022/09/17 01:07:37;;;;;;;2.38;0.35;;;20.10;90.80;;;;;;6310973;22;20030;-73
2022/09/17 01:10:21;;;;;;;0.85;0.40;;;20.20;90.40;;;;;;6339422;22;20436;-74
2022/09/17 01:13:04;;;;;;;0.25;0.20;;;19.70;90.80;;;;;;6339215;22;20070;-74
2022/09/17 01:16:06;;;;;;;1.35;0.30;;;19.70;90.50;;;;;;6339549;22;19994;-76
2022/09/17 01:19:00;;;;;;;1.48;0.13;;;19.70;90.40;;;;;;6339293;22;20071;-75
2022/09/17 01:21:46;;;;;;;0.50;0.30;;;19.60;90.10;;;;;;6338761;22;19994;-77
2022/09/17 01:24:31;;;;;;;0.28;0.20;;;19.60;90.30;;;;;;6338960;22;19999;-76
2022/09/17 01:27:19;;;;;;;0.30;0.08;;;19.60;90.90;;;;;;6337607;22;20003;-78
2022/09/17 01:29:51;;;;;;;0.20;0.10;;;19.60;90.50;;;;;;6339021;22;20048;-79
2022/09/17 01:32:45;;;;;;;0.40;0.20;;;19.70;90.50;;;;;;6338203;22;19996;-79
2022/09/17 01:35:37;;;;;;;0.38;0.25;;;19.70;90.30;;;;;;6338435;22;20021;-78
2022/09/17 01:38:33;;;;;;;0.43;0.10;;;19.40;90.20;;;;;;6311312;22;20337;-78
2022/09/17 01:41:06;;;;;;;0.30;0.10;;;19.50;90.00;;;;;;6338745;22;19999;-78
2022/09/17 01:43:56;;;;;;;0.10;0.10;;;19.60;90.10;;;;;;6339057;22;19999;-77
2022/09/17 01:46:32;;;;;;;0.20;0.20;;;19.50;90.50;;;;;;6311523;22;20116;-77
2022/09/17 01:49:03;;;;;;;0.40;0.20;;;19.50;90.50;;;;;;6338173;22;19999;-78
2022/09/17 01:51:36;;;;;;;0.25;0.20;;;19.40;90.00;;;;;;6339531;22;20021;-77
2022/09/17 01:54:13;;;;;;;0.13;0.10;;;19.40;90.50;;;;;;6311428;22;20355;-75
2022/09/17 01:56:46;;;;;;;0.40;0.30;;;19.50;90.30;;;;;;6339344;22;20073;-76
2022/09/17 01:59:23;;;;;;;0.30;0.30;;;19.60;90.20;;;;;;6339039;22;20298;-76
2022/09/17 02:01:58;;;;;;;1.15;0.20;;;19.30;90.00;;;;;;6339639;22;20433;-76
2022/09/17 02:04:50;;;;;;;0.77;0.28;;;19.40;90.30;;;;;;6338840;22;20006;-77
2022/09/17 02:07:21;;;;;;;0.20;0.20;;;19.20;90.40;;;;;;6331063;22;20019;-77
2022/09/17 02:10:04;;;;;;;1.95;0.30;;;19.30;90.60;;;;;;6339279;22;20083;-77
2022/09/17 02:12:39;;;;;;;0.38;0.20;;;19.30;90.70;;;;;;6311794;22;20336;-77
2022/09/17 02:15:13;;;;;;;0.30;0.20;;;19.40;90.60;;;;;;6338360;22;20061;-76
2022/09/17 02:17:49;;;;;;;0.70;0.20;;;19.50;90.40;;;;;;6338468;22;20409;-77
2022/09/17 02:20:16;;;;;;;0.60;0.25;;;19.40;90.30;;;;;;6338963;22;20068;-77
2022/09/17 02:22:44;;;;;;;0.77;0.30;;;19.50;90.20;;;;;;6338403;22;20029;-75
2022/09/17 02:25:21;;;;;;;0.60;0.30;;;19.50;90.20;;;;;;6310680;22;20305;-75
2022/09/17 02:28:05;;;;;;;0.20;0.20;;;19.50;90.10;;;;;;6337104;22;20025;-76
2022/09/17 02:30:31;;;;;;;0.88;0.25;;;19.40;90.20;;;;;;6338198;22;20372;-75
2022/09/17 02:32:57;;;;;;;0.63;0.35;;;19.40;90.50;;;;;;6310520;22;20052;-76
2022/09/17 02:35:23;;;;;;;0.63;0.47;;;19.30;90.80;;;;;;6338987;22;20003;-73
2022/09/17 02:37:49;;;;;;;0.70;0.32;;;19.10;90.80;;;;;;6337435;22;19999;-73
2022/09/17 02:40:16;;;;;;;0.22;0.20;;;19.10;90.50;;;;;;6338410;22;19999;-74
2022/09/17 02:43:09;;;;;;;0.20;0.20;;;19.00;90.50;;;;;;6338112;22;20009;-74
2022/09/17 02:45:46;;;;;;;0.28;0.20;;;19.10;90.20;;;;;;6338820;22;20367;-74
2022/09/17 02:48:40;;;;;;;0.65;0.20;;;18.90;90.10;;;;;;6337681;22;20007;-74
2022/09/17 02:51:32;;;;;;;0.20;0.20;;;19.00;90.20;;;;;;6339104;22;19999;-75
2022/09/17 02:54:16;;;;;;;0.20;0.20;;;19.10;89.90;;;;;;6337808;22;20325;-74
2022/09/17 02:57:08;;;;;;;0.20;0.20;;;19.20;89.70;;;;;;6337661;22;20029;-75
2022/09/17 02:59:55;;;;;;;1.83;0.25;;;19.20;89.50;;;;;;6310077;22;20011;-76
2022/09/17 03:02:37;;;;;;;0.50;0.30;;;19.00;88.70;;;;;;6337073;22;20007;-75
2022/09/17 03:05:05;;;;;;;0.85;0.25;;;19.00;89.40;;;;;;6338120;22;20007;-75
2022/09/17 03:07:31;;;;;;;0.32;0.28;;;18.90;89.30;;;;;;6337633;22;20006;-74
2022/09/17 03:09:57;;;;;;;2.92;0.40;;;18.90;89.80;;;;;;6338505;22;19995;-74
2022/09/17 03:12:25;;;;;;;3.05;0.30;;;18.90;89.50;;;;;;6337671;22;20002;-74
2022/09/17 03:14:51;;;;;;;0.28;0.25;;;18.90;89.60;;;;;;6337792;22;20002;-73
2022/09/17 03:17:17;;;;;;;0.25;0.20;;;19.00;89.30;;;;;;6337624;22;20003;-74
2022/09/17 03:19:43;;;;;;;1.20;0.20;;;19.00;89.20;;;;;;6338376;22;20007;-75
2022/09/17 03:22:09;;;;;;;0.30;0.30;;;19.00;89.00;;;;;;6337743;22;20003;-74
2022/09/17 03:24:34;;;;;;;0.40;0.30;;;19.10;88.80;;;;;;6338356;22;20007;-74
2022/09/17 03:27:00;;;;;;;0.75;0.30;;;19.10;88.40;;;;;;6336920;22;20003;-73
2022/09/17 03:29:26;;;;;;;1.52;0.40;;;19.20;88.70;;;;;;6338537;22;19994;-74
2022/09/17 03:31:51;;;;;;;1.15;0.43;;;19.30;88.70;;;;;;6309583;22;20110;-74
2022/09/17 03:34:17;;;;;;;1.27;0.50;;;19.20;88.00;;;;;;6336988;22;20056;-74
2022/09/17 03:36:43;;;;;;;0.70;0.30;;;19.20;88.70;;;;;;6337417;22;20003;-74
2022/09/17 03:39:09;;;;;;;2.47;0.52;;;19.20;88.60;;;;;;6337263;22;19998;-74
2022/09/17 03:41:34;;;;;;;1.10;0.30;;;19.20;88.80;;;;;;6338304;22;20092;-74
2022/09/17 03:44:00;;;;;;;0.43;0.43;;;19.10;88.00;;;;;;6338188;22;20120;-75
2022/09/17 03:46:26;;;;;;;0.88;0.35;;;19.10;88.50;;;;;;6309760;22;20033;-74
2022/09/17 03:48:51;;;;;;;0.50;0.30;;;19.10;88.60;;;;;;6310218;22;20010;-74
2022/09/17 03:51:17;;;;;;;0.40;0.30;;;19.10;88.50;;;;;;6338035;22;20069;-74
2022/09/17 03:53:43;;;;;;;0.82;0.40;;;19.20;88.80;;;;;;6337766;22;20021;-74
2022/09/17 03:56:08;;;;;;;0.30;0.30;;;19.20;90.00;;;;;;6310001;22;19999;-74
2022/09/17 03:58:34;;;;;;;0.20;0.20;;;18.90;88.60;;;;;;6337440;22;20047;-75
2022/09/17 04:01:02;;;;;;;0.20;0.20;;;18.70;89.40;;;;;;6337943;22;20040;-74
2022/09/17 04:03:27;;;;;;;0.52;0.35;;;18.90;88.90;;;;;;6337666;22;19999;-74
2022/09/17 04:05:53;;;;;;;0.20;0.20;;;18.90;90.00;;;;;;6337596;22;20081;-74
2022/09/17 04:08:20;;;;;;;0.10;0.10;;;18.70;88.20;;;;;;6336560;22;20006;-72
2022/09/17 04:10:46;;;;;;;0.20;0.20;;;18.80;88.50;;;;;;6337715;22;20005;-73
2022/09/17 04:13:14;;;;;;;0.28;0.28;;;19.00;88.20;;;;;;6339329;22;19998;-73
2022/09/17 04:15:40;;;;;;;1.33;0.13;;;18.90;88.00;;;;;;6340529;22;20002;-77
2022/09/17 04:18:06;;;;;;;0.30;0.15;;;18.80;86.90;;;;;;6339238;22;20006;-77
2022/09/17 04:20:32;;;;;;;0.32;0.13;;;18.70;87.40;;;;;;6339744;22;20348;-77
2022/09/17 04:22:58;;;;;;;2.92;0.20;;;18.70;86.50;;;;;;6312046;22;20003;-75
2022/09/17 04:25:39;;;;;;;0.75;0.20;;;18.80;86.10;;;;;;6312723;22;20048;-75
2022/09/17 04:28:05;;;;;;;2.08;0.22;;;18.70;85.90;;;;;;6339770;22;20031;-75
2022/09/17 04:30:35;;;;;;;1.27;0.20;;;18.70;86.10;;;;;;6339810;22;19999;-76
2022/09/17 04:33:01;;;;;;;;;;;18.70;85.10;;;;;;6311987;22;19999;-77
2022/09/17 04:35:27;;;;;;;0.77;0.13;;;18.60;85.30;;;;;;6339286;22;19905;-78
2022/09/17 04:37:55;;;;;;;0.43;0.20;;;18.60;86.30;;;;;;6339106;22;20003;-77
2022/09/17 04:40:23;;;;;;;0.10;0.10;;;18.50;86.10;;;;;;6339250;22;19998;-75
2022/09/17 04:42:53;;;;;;;2.42;0.52;;;18.60;85.90;;;;;;6339337;22;20026;-75
2022/09/17 04:45:20;;;;;;;0.68;0.40;;;18.50;86.90;;;;;;6311842;22;20056;-78
2022/09/17 04:47:46;;;;;;;0.20;0.20;;;18.40;87.50;;;;;;6339085;22;20424;-78
2022/09/17 04:50:12;;;;;;;1.38;0.20;;;18.00;88.60;;;;;;6340193;22;20051;-78
2022/09/17 04:52:42;;;;;;;0.63;0.32;;;17.80;88.20;;;;;;6339360;22;20509;-78
2022/09/17 04:55:09;;;;;;;0.22;0.22;;;17.70;88.60;;;;;;6339840;22;20065;-78
2022/09/17 04:57:34;;;;;;;1.00;0.25;;;17.00;90.50;;;;;;6339664;22;20010;-77
2022/09/17 05:00:00;;;;;;;1.30;0.20;;;16.90;90.80;;;;;;6339922;22;20003;-77
2022/09/17 05:02:26;;;;;;;0.52;0.35;;;16.70;91.40;;;;;;6339067;22;19999;-78
2022/09/17 05:04:52;;;;;;;0.55;0.20;;;16.80;91.60;;;;;;6339462;22;20029;-77
2022/09/17 05:07:18;;;;;;;1.33;0.30;;;17.10;91.40;;;;;;6311834;22;20015;-79
2022/09/17 05:09:45;;;;;;;2.58;0.30;;;17.30;91.20;;;;;;6312098;22;20006;-77
2022/09/17 05:12:10;;;;;;;3.78;0.40;;;17.40;90.80;;;;;;6311438;22;20011;-78
2022/09/17 05:14:36;;;;;;;0.85;0.32;;;17.40;90.90;;;;;;6338163;22;20396;-78
2022/09/17 05:17:02;;;;;;;0.70;0.40;;;17.60;90.70;;;;;;6338950;22;20003;-77
2022/09/17 05:19:28;;;;;;;0.73;0.50;;;17.60;90.90;;;;;;6311522;22;20413;-77
2022/09/17 05:21:54;;;;;;;0.55;0.20;;;17.80;90.50;;;;;;6338832;22;19999;-77
2022/09/17 05:24:19;;;;;;;1.65;0.60;;;17.90;90.40;;;;;;6338086;22;19999;-79
2022/09/17 05:26:45;;;;;;;1.05;0.40;;;17.90;90.80;;;;;;6336815;22;20081;-79
2022/09/17 05:29:10;;;;;;;0.93;0.50;;;18.00;90.70;;;;;;6338442;22;20406;-78
2022/09/17 05:31:36;;;;;;;1.35;0.73;;;18.10;90.50;;;;;;6337704;22;20424;-79
2022/09/17 05:34:02;;;;;;;1.73;0.82;;;18.10;90.40;;;;;;6338577;22;20025;-79
2022/09/17 05:36:28;;;;;;;1.10;0.50;;;18.00;90.00;;;;;;6338639;22;20072;-78
2022/09/17 05:38:54;;;;;;;1.27;0.77;;;17.90;90.50;;;;;;6338166;22;20401;-79
2022/09/17 05:41:20;;;;;;;1.75;0.30;;;18.00;90.60;;;;;;6338127;22;20325;-79
2022/09/17 05:43:45;;;;;;;2.38;0.60;;;17.70;90.50;;;;;;6337651;22;19998;-78
2022/09/17 05:46:11;;;;;;;0.40;0.35;;;17.80;90.40;;;;;;6311364;22;20405;-79
2022/09/17 05:48:37;;;;;;;1.90;0.60;;;17.90;90.40;;;;;;6335471;22;20052;-78
2022/09/17 05:51:03;;;;;;;6.43;0.40;;;17.90;90.40;;;;;;6338941;22;20026;-78
2022/09/17 05:53:28;;;;;;;1.30;0.45;;;18.00;90.70;;;;;;6338723;22;20006;-77
2022/09/17 05:55:58;;;;;;;1.20;0.20;;;18.00;90.80;;;;;;6336433;22;19995;-78
2022/09/17 05:58:24;;;;;;;1.90;0.50;;;18.00;90.60;;;;;;6338142;22;20003;-74
2022/09/17 06:00:50;;;;;;;2.53;0.30;;;18.00;90.70;;;;;;6337899;22;20328;-74
2022/09/17 06:03:18;;;;;;;1.05;0.40;;;18.00;90.50;;;;;;6338156;22;19999;-73
2022/09/17 06:05:58;;;;;;;3.42;0.70;;;18.00;90.70;;;;;;6310530;22;20049;-74
2022/09/17 06:08:24;;;;;;;;;;;18.10;90.80;;;;;;6337603;22;20492;-77
2022/09/17 06:10:50;;;;;;;1.25;0.50;;;17.90;90.40;;;;;;6310880;22;19910;-79
2022/09/17 06:13:17;;;;;;;1.30;0.50;;;17.80;90.90;;;;;;6338657;22;19998;-78
2022/09/17 06:15:48;;;;;;;1.00;0.47;;;17.80;91.20;;;;;;6338616;22;20010;-75
2022/09/17 06:18:14;;;;;;;3.03;0.60;;;17.60;91.00;;;;;;6337772;22;20003;-80
2022/09/17 06:20:40;;;;;;;0.90;0.52;;;17.70;90.90;;;;;;6337730;22;20440;-74
2022/09/17 06:23:06;;;;;;;4.57;0.60;;;17.70;91.10;;;;;;6337376;22;20101;-74
2022/09/17 06:25:32;;;;;;;0.85;0.40;;;17.60;91.20;;;;;;6337950;22;20003;-76
2022/09/17 06:28:00;;;;;;;1.77;0.82;;;17.30;91.30;;;;;;6336961;22;20003;-77
2022/09/17 06:30:26;;;;;;;1.90;0.50;;;17.30;91.60;;;;;;6338278;22;20033;-77
2022/09/17 06:32:51;;;;;;;0.50;0.40;;;17.40;91.30;;;;;;6338212;22;19995;-77
2022/09/17 06:35:17;;;;;;;0.75;0.45;;;17.50;91.00;;;;;;6338254;22;20044;-77
2022/09/17 06:37:43;;;;;;;0.80;0.50;;;17.60;90.90;;;;;;6337430;22;20007;-77
2022/09/17 06:40:23;;;;;;;2.00;0.90;;;17.60;90.80;;;;;;6310489;22;20056;-82
2022/09/17 06:42:48;;;;;;;0.95;0.60;;;17.60;91.00;;;;;;6338427;22;20002;-82
2022/09/17 06:45:14;;;;;;;1.70;0.52;;;17.50;90.90;;;;;;6338404;22;20003;-82
2022/09/17 06:47:40;;;;;;;0.77;0.43;;;17.50;91.00;;;;;;6337580;22;20446;-83
2022/09/17 06:50:06;;;;;;;0.88;0.50;;;17.60;90.80;;;;;;6337878;22;20002;-81
2022/09/17 06:52:31;;;;;;;0.90;0.40;;;17.60;90.90;;;;;;6337899;22;20029;-81
2022/09/17 06:54:57;;;;;;;1.65;0.60;;;17.60;90.50;;;;;;6337735;22;19994;-81
2022/09/17 06:57:23;;;;;;;0.88;0.40;;;17.50;90.80;;;;;;6337655;22;20002;-77
2022/09/17 06:59:49;;;;;;;0.85;0.57;;;17.40;90.80;;;;;;6338082;22;20486;-77
2022/09/17 07:02:15;;;;;;;0.68;0.40;;;17.50;90.70;;;;;;6337744;22;20436;-77
2022/09/17 07:04:40;;;;;;;2.65;0.75;;;17.50;90.70;;;;;;6338140;22;19999;-77
2022/09/17 07:07:07;;;;;;;2.38;0.85;;;17.60;90.70;;;;;;6337349;22;20453;-77
2022/09/17 07:09:33;;;;;;;0.88;0.63;;;17.60;90.60;;;;;;6300470;22;20003;-77
2022/09/17 07:11:59;;;;;;;2.60;0.80;;;17.60;90.60;;;;;;6308501;22;20328;-77
2022/09/17 07:14:24;;;;;;;1.00;0.73;;;17.70;90.50;;;;;;6333023;22;20385;-77
2022/09/17 07:16:51;;;;;;;1.13;0.50;;;17.60;90.50;;;;;;6335787;22;20007;-82
2022/09/17 07:19:17;;;;;;;2.35;0.60;;;17.50;90.60;;;;;;6335061;22;19999;-79
2022/09/17 07:21:43;;;;;;;0.85;0.63;;;17.50;90.60;;;;;;6336147;22;20013;-80
2022/09/17 07:24:08;;;;;;;1.00;0.73;;;17.50;90.70;;;;;;6335379;22;20007;-79
2022/09/17 07:26:34;;;;;;;0.57;0.40;;;17.50;90.70;;;;;;6336884;22;20003;-79
2022/09/17 07:29:00;;;;;;;0.88;0.52;;;17.50;90.60;;;;;;6336356;22;20006;-80
2022/09/17 07:31:25;;;;;;;1.83;0.40;;;17.50;90.40;;;;;;6337199;22;20055;-81
2022/09/17 07:33:51;;;;;;;2.63;0.60;;;17.40;90.30;;;;;;6309528;22;20097;-80
2022/09/17 07:36:17;;;;;;;3.55;0.60;;;17.30;90.50;;;;;;6336600;22;20425;-80
2022/09/17 07:38:42;;;;;;;1.27;0.50;;;17.30;90.50;;;;;;6337571;22;19998;-81
2022/09/17 07:41:14;;;;;;;1.00;0.43;;;17.40;90.50;;;;;;6337248;22;20483;-82
2022/09/17 07:43:41;;;;;;;0.88;0.40;;;17.40;90.60;;;;;;6335599;22;19998;-83
2022/09/17 07:46:11;;;;;;;1.70;0.65;;;17.40;90.50;;;;;;6308336;22;19999;-82
2022/09/17 07:48:37;;;;;;;1.42;0.60;;;17.40;90.50;;;;;;6337747;22;20010;-81
2022/09/17 07:51:03;;;;;;;1.20;0.47;;;17.50;90.50;;;;;;6336276;22;20376;-81
2022/09/17 07:53:29;;;;;;;0.85;0.38;;;17.50;90.60;;;;;;6336733;22;19995;-81
2022/09/17 07:55:59;;;;;;;2.47;0.70;;;17.40;90.50;;;;;;6336940;22;19995;-81
2022/09/17 07:58:30;;;;;;;2.28;0.63;;;17.40;90.60;;;;;;6337474;22;20409;-81
2022/09/17 08:01:04;;;;;;;1.20;0.60;;;17.40;90.50;;;;;;6337277;22;20003;-80
2022/09/17 08:03:32;;;;;;;1.20;0.50;;;17.40;90.50;;;;;;6338301;22;20007;-81
2022/09/17 08:06:12;;;;;;;2.30;0.50;;;17.40;90.50;;;;;;6304751;22;20015;-81
2022/09/17 08:08:39;;;;;;;0.85;0.52;;;17.30;90.60;;;;;;6306051;22;20003;-81
2022/09/17 08:11:13;;;;;;;1.73;0.57;;;17.30;90.60;;;;;;6278820;22;20470;-81
2022/09/17 08:13:39;;;;;;;2.47;0.88;;;17.30;90.50;;;;;;6305530;22;20283;-80
2022/09/17 08:16:14;;;;;;;0.85;0.30;;;17.30;90.60;;;;;;6305571;22;20025;-80
2022/09/17 08:18:40;;;;;;;0.55;0.50;;;17.20;90.50;;;;;;6306735;22;20003;-81
2022/09/17 08:21:08;;;;;;;0.22;0.22;;;17.20;90.50;;;;;;6306126;22;20307;-80
2022/09/17 08:23:35;;;;;;;0.98;0.60;;;17.20;90.40;;;;;;6305085;22;20070;-80
2022/09/17 08:26:02;;;;;;;3.70;0.50;;;16.90;89.50;;;;;;6305563;22;20037;-79
2022/09/17 08:28:29;;;;;;;2.47;0.68;;;16.80;91.10;;;;;;6304816;22;20078;-80
2022/09/17 08:31:00;;;;;;;3.60;0.57;;;16.50;91.70;;;;;;6305891;22;20027;-80
2022/09/17 08:33:29;;;;;;;1.95;0.50;;;16.60;91.40;;;;;;6306101;22;20307;-80
2022/09/17 08:35:58;;;;;;;0.68;0.55;;;16.40;91.70;;;;;;6306723;22;20418;-80
2022/09/17 08:38:25;;;;;;;1.50;0.80;;;15.90;92.10;;;;;;6279477;22;20049;-80
2022/09/17 08:41:09;;;;;;;0.50;0.50;;;15.80;92.80;;;;;;6305483;22;20003;-79
2022/09/17 08:43:48;;;;;;;1.73;0.50;;;15.70;93.00;;;;;;6306144;22;20004;-80
2022/09/17 08:46:14;;;;;;;1.02;0.30;;;15.70;92.90;;;;;;6306574;22;20052;-80
2022/09/17 08:49:07;;;;;;;0.30;0.20;;;16.00;92.70;;;;;;6304840;22;20007;-80
2022/09/17 08:51:47;;;;;;;0.30;0.30;;;16.40;92.30;;;;;;6305531;22;20003;-79
2022/09/17 08:54:23;;;;;;;2.58;0.63;;;16.60;92.00;;;;;;6304927;22;20140;-79
2022/09/17 08:57:07;;;;;;;0.40;0.35;;;16.70;91.00;;;;;;6286915;22;20007;-80
2022/09/17 08:59:42;;;;;;;0.40;0.30;;;16.80;91.20;;;;;;6369337;22;20013;-80
2022/09/17 09:02:42;;;;;;;0.70;0.50;;;16.80;91.20;;;;;;6371018;22;20066;-80
2022/09/17 09:05:14;;;;;;;0.80;0.52;;;17.00;91.20;;;;;;6306293;22;20025;-80
2022/09/17 09:08:02;;;;;;;0.80;0.47;;;17.10;91.10;;;;;;6341701;22;20011;-80
2022/09/17 09:10:32;;;;;;;0.63;0.32;;;17.10;90.90;;;;;;6370380;22;20039;-80
2022/09/17 09:13:00;;;;;;;1.27;0.55;;;17.20;90.50;;;;;;6369901;22;20297;-80
2022/09/17 09:15:39;;;;;;;1.17;0.38;;;17.30;90.50;;;;;;6367082;22;19994;-80
2022/09/17 09:18:26;;;;;;;1.02;0.60;;;17.30;90.60;;;;;;6340315;22;20009;-80
2022/09/17 09:20:56;;;;;;;0.57;0.22;;;17.30;90.50;;;;;;6370142;22;20003;-80
2022/09/17 09:24:07;;;;;;;1.35;0.30;;;17.30;90.20;;;;;;6368908;22;20002;-80
2022/09/17 09:26:45;;;;;;;1.17;0.60;;;17.30;90.10;;;;;;6211478;23;20427;-81
2022/09/17 09:29:27;;;;;;;2.03;0.57;;;17.30;90.30;;;;;;6209062;23;20039;-81
2022/09/17 09:32:24;;;;;;;0.90;0.30;;;17.40;90.30;;;;;;6298793;22;20010;-80
2022/09/17 09:34:50;;;;;;;0.88;0.30;;;17.30;90.20;;;;;;6369195;22;19998;-81
2022/09/17 09:37:22;;;;;;;1.38;0.50;;;17.30;90.10;;;;;;6368460;22;19998;-81
2022/09/17 09:39:51;;;;;;;0.63;0.30;;;17.30;90.20;;;;;;6368468;22;20428;-81
2022/09/17 09:42:23;;;;;;;0.50;0.40;;;17.30;90.00;;;;;;6370188;22;19998;-81
2022/09/17 09:44:49;;;;;;;0.85;0.35;;;17.30;89.90;;;;;;6367664;22;20009;-80
2022/09/17 09:47:47;;;;;;;0.52;0.30;;;17.40;89.90;;;;;;6368400;22;20069;-81
2022/09/17 09:50:28;;;;;;;0.60;0.30;;;17.30;89.90;;;;;;6369244;22;20336;-80
2022/09/17 09:53:00;;;;;;;0.43;0.40;;;17.30;88.50;;;;;;6367763;22;19999;-80
2022/09/17 09:55:28;;;;;;;2.75;0.75;;;17.20;88.80;;;;;;6368856;22;19994;-79
2022/09/17 09:58:04;;;;;;;0.25;0.20;;;17.20;89.00;;;;;;6368722;22;20010;-74
2022/09/17 10:00:34;;;;;;;0.65;0.38;;;17.10;88.90;;;;;;6368838;22;20052;-74
2022/09/17 10:03:20;;;;;;;1.90;0.38;;;17.20;89.20;;;;;;6369328;22;20001;-74
2022/09/17 10:05:54;;;;;;;0.20;0.20;;;17.30;89.00;;;;;;6368780;22;20002;-73
2022/09/17 10:08:20;;;;;;;0.43;0.17;;;17.20;88.40;;;;;;6366565;22;20002;-73
2022/09/17 10:11:01;;;;;;;0.52;0.22;;;17.30;89.00;;;;;;6367478;22;20047;-74
2022/09/17 10:13:29;;;;;;;0.35;0.20;;;17.30;88.40;;;;;;6368368;22;20043;-73
2022/09/17 10:15:55;;;;;;;0.15;0.15;;;17.30;88.40;;;;;;6369270;22;19998;-73
2022/09/17 10:18:24;;;;;;;0.35;0.20;;;17.30;87.40;;;;;;6367781;22;20801;-73
2022/09/17 10:20:53;;;;;;;0.25;0.25;;;17.40;87.70;;;;;;6368046;22;20006;-74
2022/09/17 10:23:20;;;;;;;0.93;0.50;;;17.40;87.70;;;;;;6368025;22;20051;-74
2022/09/17 10:25:47;;;;;;;0.60;0.22;;;17.20;86.20;;;;;;6370083;22;20002;-73
2022/09/17 10:28:33;;;;;;;0.45;0.40;;;17.30;87.80;;;;;;6369196;22;20428;-74
2022/09/17 10:31:05;;;;;;;0.40;0.20;;;17.40;88.40;;;;;;6342055;22;20715;-74
2022/09/17 10:33:32;;;;;;;1.00;0.30;;;17.30;87.60;;;;;;6368784;22;20027;-74
2022/09/17 10:35:58;;;;;;;1.98;0.22;;;17.40;88.00;;;;;;6369961;22;19998;-74
2022/09/17 10:38:33;;;;;;;0.80;0.38;;;17.50;87.70;;;;;;6342204;22;20443;-74
2022/09/17 10:41:17;;;;;;;0.65;0.30;;;17.50;87.60;;;;;;6369992;22;20006;-74
2022/09/17 10:43:43;;;;;;;0.85;0.40;;;17.60;86.30;;;;;;6367527;22;20003;-74
2022/09/17 10:46:14;;;;;;;1.45;0.25;;;17.70;86.80;;;;;;6367919;22;20302;-75
2022/09/17 10:48:56;;;;;;;0.40;0.30;;;17.70;86.80;;;;;;6367538;22;20355;-74
2022/09/17 10:51:24;;;;;;;1.70;0.52;;;17.60;86.10;;;;;;6369407;22;20025;-75
2022/09/17 10:54:03;;;;;;;1.67;0.70;;;17.70;85.90;;;;;;6368220;22;19990;-74
2022/09/17 10:56:35;;;;;;;2.83;0.43;;;17.50;83.90;;;;;;6369697;22;20071;-75
2022/09/17 10:59:21;;;;;;;0.15;0.10;;;17.50;84.30;;;;;;6369420;22;20305;-74
2022/09/17 11:02:06;;;;;;;0.63;0.40;;;17.60;85.40;;;;;;6368219;22;20035;-74
2022/09/17 11:04:55;;;;;;;0.88;0.38;;;17.70;85.50;;;;;;6367797;22;20000;-74
2022/09/17 11:07:30;;;;;;;0.45;0.32;;;17.50;85.00;;;;;;6369321;22;20085;-74
2022/09/17 11:10:08;;;;;;;0.50;0.30;;;17.60;85.00;;;;;;6369911;22;19995;-75
2022/09/17 11:12:38;;;;;;;0.40;0.25;;;17.60;83.60;;;;;;6369204;22;20093;-75
2022/09/17 11:15:18;;;;;;;0.30;0.20;;;17.00;82.40;;;;;;6341167;22;20034;-81
2022/09/17 11:18:22;;;;;;;0.43;0.20;;;16.80;83.60;;;;;;6341747;22;20042;-81
2022/09/17 11:21:09;;;;;;;0.50;0.20;;;17.10;85.70;;;;;;6368752;22;20443;-82
2022/09/17 11:23:44;;;;;;;0.10;0.10;;;17.10;82.00;;;;;;6341769;22;20006;-81
2022/09/17 11:26:38;;;;;;;1.08;0.30;;;17.30;83.20;;;;;;6369479;22;20025;-81
2022/09/17 11:29:03;;;;;;;2.33;0.80;;;17.10;81.40;;;;;;6369212;22;20008;-80
2022/09/17 11:31:44;;;;;;;0.52;0.20;;;17.20;83.00;;;;;;6369431;22;20026;-81
2022/09/17 11:34:34;;;;;;;3.00;0.40;;;17.20;83.10;;;;;;6369037;22;20448;-81
2022/09/17 11:37:17;;;;;;;1.80;0.20;;;17.40;83.10;;;;;;6369947;22;19998;-81
2022/09/17 11:39:56;;;;;;;0.95;0.30;;;17.30;82.70;;;;;;6369706;22;20013;-81
2022/09/17 11:42:29;;;;;;;0.32;0.30;;;17.20;81.70;;;;;;6369301;22;20362;-75
2022/09/17 11:45:09;;;;;;;1.75;0.50;;;17.30;83.20;;;;;;6341443;22;20006;-75
2022/09/17 11:47:40;;;;;;;0.47;0.25;;;17.50;82.70;;;;;;6369736;22;20008;-76
2022/09/17 11:50:27;;;;;;;0.30;0.20;;;17.50;80.70;;;;;;6369579;22;20081;-76
2022/09/17 11:53:19;;;;;;;0.38;0.30;;;17.70;81.90;;;;;;6342270;22;20022;-75
2022/09/17 11:56:02;;;;;;;0.20;0.20;;;17.60;80.90;;;;;;6363653;22;20002;-75
2022/09/17 11:58:49;;;;;;;0.73;0.32;;;17.80;81.60;;;;;;6363654;22;20072;-75
2022/09/17 12:01:28;;;;;;;1.20;0.22;;;18.00;80.50;;;;;;6365008;22;20126;-75
2022/09/17 12:04:10;;;;;;;0.40;0.30;;;18.10;79.90;;;;;;6366525;22;20071;-75
2022/09/17 12:06:57;;;;;;;0.20;0.20;;;18.30;79.90;;;;;;6368080;22;20002;-75
2022/09/17 12:09:34;;;;;;;2.20;0.55;;;18.30;78.70;;;;;;6360714;22;19998;-82
2022/09/17 12:12:13;;;;;;;2.60;0.25;;;18.50;78.70;;;;;;6339693;22;20002;-82
2022/09/17 12:14:56;;;;;;;1.25;0.30;;;18.20;75.70;;;;;;6366935;22;19998;-75
2022/09/17 12:17:38;;;;;;;0.38;0.30;;;18.40;77.80;;;;;;6339764;22;20006;-75
2022/09/17 12:20:31;;;;;;;0.43;0.20;;;18.30;75.50;;;;;;6368333;22;20143;-75
2022/09/17 12:23:01;;;;;;;0.10;0.10;;;18.20;75.70;;;;;;6367313;22;20003;-75
2022/09/17 12:25:35;;;;;;;0.30;0.20;;;18.20;77.60;;;;;;6367656;22;20073;-83
2022/09/17 12:28:16;;;;;;;0.98;0.28;;;18.40;75.40;;;;;;6367357;22;19999;-82
2022/09/17 12:30:43;;;;;;;;;;;18.70;77.40;;;;;;6369037;22;20088;-82
2022/09/17 12:33:41;;;;;;;0.93;0.30;;;19.00;77.70;;;;;;6369565;22;19943;-82
2022/09/17 12:36:21;;;;;;;0.30;0.30;;;19.30;77.90;;;;;;6370714;22;20061;-75
2022/09/17 12:38:47;;;;;;;0.30;0.30;;;19.80;76.10;;;;;;6370211;22;20397;-75
2022/09/17 12:41:45;;;;;;;0.20;0.20;;;20.10;72.30;;;;;;6370839;22;19998;-75
2022/09/17 12:44:20;;;;;;;0.30;0.30;;;20.80;73.20;;;;;;6290140;22;20064;-75
2022/09/17 12:47:03;;;;;;;0.40;0.30;;;21.50;71.70;;;;;;6370134;22;20002;-75
2022/09/17 12:49:44;;;;;;;0.85;0.20;;;22.00;70.30;;;;;;6371622;22;19994;-76
2022/09/17 12:52:48;;;;;;;1.77;0.40;;;22.60;69.50;;;;;;6370221;22;19994;-82
2022/09/17 12:56:01;;;;;;;0.52;0.30;;;23.10;66.30;;;;;;6286706;22;20081;-82
2022/09/17 12:58:52;;;;;;;2.35;0.35;;;23.50;64.50;;;;;;6212246;23;20031;-82
2022/09/17 13:01:43;;;;;;;0.30;0.20;;;23.20;60.20;;;;;;6337818;22;20492;-75
2022/09/17 13:04:34;;;;;;;1.00;0.20;;;23.50;63.20;;;;;;6341751;22;20046;-75
2022/09/17 13:07:31;;;;;;;0.93;0.20;;;23.60;63.10;;;;;;6370260;22;20006;-75
2022/09/17 13:10:18;;;;;;;0.85;0.20;;;23.60;61.40;;;;;;6370733;22;20071;-75
2022/09/17 13:13:00;;;;;;;0.47;0.20;;;23.40;61.10;;;;;;6342204;22;20003;-76
2022/09/17 13:15:38;;;;;;;0.90;0.15;;;23.10;62.10;;;;;;6369937;22;20047;-76
2022/09/17 13:18:14;;;;;;;0.40;0.20;;;22.80;62.90;;;;;;6369573;22;20408;-76